sensor_id;sensor_type;location;lat;lon;timestamp;P1;durP1;ratioP1;P2;durP2;ratioP2
66093;SDS011;52876;49.394;10.892;2022-07-23T00:00:21;10.80;;;9.70;;
66093;SDS011;52876;49.394;10.892;2022-07-23T00:02:54;11.03;;;9.93;;
66093;SDS011;52876;49.394;10.892;2022-07-23T00:05:21;11.50;;;10.47;;
66093;SDS011;52876;49.394;10.892;2022-07-23T00:07:54;12.03;;;10.80;;
66093;SDS011;52876;49.394;10.892;2022-07-23T00:10:21;11.93;;;10.80;;
66093;SDS011;52876;49.394;10.892;2022-07-23T00:12:55;10.80;;;9.90;;
66093;SDS011;52876;49.394;10.892;2022-07-23T00:15:23;12.87;;;9.80;;
66093;SDS011;52876;49.394;10.892;2022-07-23T00:17:50;12.00;;;10.90;;
66093;SDS011;52876;49.394;10.892;2022-07-23T00:20:22;12.10;;;11.10;;
66093;SDS011;52876;49.394;10.892;2022-07-23T00:22:54;11.67;;;10.57;;
66093;SDS011;52876;49.394;10.892;2022-07-23T00:25:35;11.97;;;10.77;;
66093;SDS011;52876;49.394;10.892;2022-07-23T00:28:02;12.17;;;11.07;;
66093;SDS011;52876;49.394;10.892;2022-07-23T00:30:30;13.67;;;12.30;;
66093;SDS011;52876;49.394;10.892;2022-07-23T00:32:57;12.63;;;11.43;;
66093;SDS011;52876;49.394;10.892;2022-07-23T00:35:39;11.47;;;10.47;;
66093;SDS011;52876;49.394;10.892;2022-07-23T00:38:07;11.97;;;10.87;;
66093;SDS011;52876;49.394;10.892;2022-07-23T00:40:34;11.80;;;10.63;;
66093;SDS011;52876;49.394;10.892;2022-07-23T00:43:00;10.67;;;9.70;;
66093;SDS011;52876;49.394;10.892;2022-07-23T00:45:34;11.50;;;10.50;;
66093;SDS011;52876;49.394;10.892;2022-07-23T00:48:01;12.53;;;11.47;;
66093;SDS011;52876;49.394;10.892;2022-07-23T00:50:27;11.40;;;10.30;;
66093;SDS011;52876;49.394;10.892;2022-07-23T00:52:53;12.50;;;11.40;;
66093;SDS011;52876;49.394;10.892;2022-07-23T00:55:20;12.13;;;11.00;;
66093;SDS011;52876;49.394;10.892;2022-07-23T00:57:51;10.93;;;10.03;;
66093;SDS011;52876;49.394;10.892;2022-07-23T01:00:20;12.53;;;11.43;;
66093;SDS011;52876;49.394;10.892;2022-07-23T01:02:55;10.73;;;9.83;;
66093;SDS011;52876;49.394;10.892;2022-07-23T01:05:21;12.60;;;11.30;;
66093;SDS011;52876;49.394;10.892;2022-07-23T01:07:54;10.70;;;9.57;;
66093;SDS011;52876;49.394;10.892;2022-07-23T01:10:20;11.10;;;10.10;;
66093;SDS011;52876;49.394;10.892;2022-07-23T01:12:54;12.57;;;11.40;;
66093;SDS011;52876;49.394;10.892;2022-07-23T01:15:21;11.60;;;10.50;;
66093;SDS011;52876;49.394;10.892;2022-07-23T01:17:55;11.60;;;10.60;;
66093;SDS011;52876;49.394;10.892;2022-07-23T01:20:22;11.73;;;10.73;;
66093;SDS011;52876;49.394;10.892;2022-07-23T01:22:55;11.60;;;10.70;;
66093;SDS011;52876;49.394;10.892;2022-07-23T01:25:21;12.40;;;11.17;;
66093;SDS011;52876;49.394;10.892;2022-07-23T01:27:55;12.07;;;11.07;;
66093;SDS011;52876;49.394;10.892;2022-07-23T01:30:21;13.00;;;11.60;;
66093;SDS011;52876;49.394;10.892;2022-07-23T01:32:54;14.67;;;13.37;;
66093;SDS011;52876;49.394;10.892;2022-07-23T01:35:20;12.00;;;10.87;;
66093;SDS011;52876;49.394;10.892;2022-07-23T01:37:56;11.77;;;10.67;;
66093;SDS011;52876;49.394;10.892;2022-07-23T01:40:27;11.57;;;10.67;;
66093;SDS011;52876;49.394;10.892;2022-07-23T01:42:53;11.13;;;10.03;;
66093;SDS011;52876;49.394;10.892;2022-07-23T01:45:24;11.23;;;10.23;;
66093;SDS011;52876;49.394;10.892;2022-07-23T01:47:50;11.40;;;10.40;;
66093;SDS011;52876;49.394;10.892;2022-07-23T01:50:17;11.53;;;10.43;;
66093;SDS011;52876;49.394;10.892;2022-07-23T01:52:49;12.30;;;11.07;;
66093;SDS011;52876;49.394;10.892;2022-07-23T01:55:17;12.00;;;11.00;;
66093;SDS011;52876;49.394;10.892;2022-07-23T01:57:47;11.67;;;10.53;;
66093;SDS011;52876;49.394;10.892;2022-07-23T02:00:14;12.37;;;10.57;;
66093;SDS011;52876;49.394;10.892;2022-07-23T02:02:45;12.13;;;11.13;;
66093;SDS011;52876;49.394;10.892;2022-07-23T02:05:11;11.90;;;10.70;;
66093;SDS011;52876;49.394;10.892;2022-07-23T02:10:25;11.97;;;10.10;;
66093;SDS011;52876;49.394;10.892;2022-07-23T02:12:52;11.10;;;10.20;;
66093;SDS011;52876;49.394;10.892;2022-07-23T02:15:23;10.70;;;9.30;;
66093;SDS011;52876;49.394;10.892;2022-07-23T02:17:49;11.13;;;10.13;;
66093;SDS011;52876;49.394;10.892;2022-07-23T02:20:16;10.30;;;9.33;;
66093;SDS011;52876;49.394;10.892;2022-07-23T02:22:48;11.03;;;9.93;;
66093;SDS011;52876;49.394;10.892;2022-07-23T02:25:14;10.57;;;9.77;;
66093;SDS011;52876;49.394;10.892;2022-07-23T02:27:46;10.77;;;9.73;;
66093;SDS011;52876;49.394;10.892;2022-07-23T02:30:12;13.97;;;9.90;;
66093;SDS011;52876;49.394;10.892;2022-07-23T02:32:44;10.90;;;9.97;;
66093;SDS011;52876;49.394;10.892;2022-07-23T02:35:11;10.93;;;9.83;;
66093;SDS011;52876;49.394;10.892;2022-07-23T02:37:53;10.30;;;9.43;;
66093;SDS011;52876;49.394;10.892;2022-07-23T02:40:19;11.30;;;10.33;;
66093;SDS011;52876;49.394;10.892;2022-07-23T02:42:53;11.50;;;10.40;;
66093;SDS011;52876;49.394;10.892;2022-07-23T02:45:19;10.60;;;9.80;;
66093;SDS011;52876;49.394;10.892;2022-07-23T02:47:50;11.50;;;10.50;;
66093;SDS011;52876;49.394;10.892;2022-07-23T02:50:17;11.20;;;10.20;;
66093;SDS011;52876;49.394;10.892;2022-07-23T02:52:49;10.57;;;9.80;;
66093;SDS011;52876;49.394;10.892;2022-07-23T02:55:17;11.33;;;10.33;;
66093;SDS011;52876;49.394;10.892;2022-07-23T02:57:49;11.17;;;9.33;;
66093;SDS011;52876;49.394;10.892;2022-07-23T03:00:17;10.20;;;9.30;;
66093;SDS011;52876;49.394;10.892;2022-07-23T03:02:51;11.30;;;10.30;;
66093;SDS011;52876;49.394;10.892;2022-07-23T03:05:17;11.00;;;9.90;;
66093;SDS011;52876;49.394;10.892;2022-07-23T03:07:54;10.33;;;9.43;;
66093;SDS011;52876;49.394;10.892;2022-07-23T03:10:31;11.13;;;10.07;;
66093;SDS011;52876;49.394;10.892;2022-07-23T03:12:57;10.70;;;9.80;;
66093;SDS011;52876;49.394;10.892;2022-07-23T03:15:31;10.90;;;10.00;;
66093;SDS011;52876;49.394;10.892;2022-07-23T03:17:57;11.00;;;10.00;;
66093;SDS011;52876;49.394;10.892;2022-07-23T03:20:23;10.90;;;10.00;;
66093;SDS011;52876;49.394;10.892;2022-07-23T03:22:50;10.73;;;9.60;;
66093;SDS011;52876;49.394;10.892;2022-07-23T03:25:20;10.53;;;9.70;;
66093;SDS011;52876;49.394;10.892;2022-07-23T03:27:51;10.30;;;9.30;;
66093;SDS011;52876;49.394;10.892;2022-07-23T03:30:18;10.00;;;9.20;;
66093;SDS011;52876;49.394;10.892;2022-07-23T03:32:50;9.83;;;9.03;;
66093;SDS011;52876;49.394;10.892;2022-07-23T03:35:17;9.57;;;8.87;;
66093;SDS011;52876;49.394;10.892;2022-07-23T03:37:54;10.23;;;9.20;;
66093;SDS011;52876;49.394;10.892;2022-07-23T03:40:21;9.73;;;8.83;;
66093;SDS011;52876;49.394;10.892;2022-07-23T03:42:52;9.10;;;8.20;;
66093;SDS011;52876;49.394;10.892;2022-07-23T03:45:18;9.40;;;8.60;;
66093;SDS011;52876;49.394;10.892;2022-07-23T03:47:51;8.80;;;8.10;;
66093;SDS011;52876;49.394;10.892;2022-07-23T03:50:18;8.87;;;8.10;;
66093;SDS011;52876;49.394;10.892;2022-07-23T03:52:48;7.87;;;7.27;;
66093;SDS011;52876;49.394;10.892;2022-07-23T03:55:15;8.60;;;7.80;;
66093;SDS011;52876;49.394;10.892;2022-07-23T03:57:45;8.80;;;8.00;;
66093;SDS011;52876;49.394;10.892;2022-07-23T04:00:12;8.13;;;7.53;;
66093;SDS011;52876;49.394;10.892;2022-07-23T04:02:43;8.47;;;7.73;;
66093;SDS011;52876;49.394;10.892;2022-07-23T04:05:10;8.47;;;7.77;;
66093;SDS011;52876;49.394;10.892;2022-07-23T04:07:41;8.00;;;7.30;;
66093;SDS011;52876;49.394;10.892;2022-07-23T04:10:08;8.33;;;7.53;;
66093;SDS011;52876;49.394;10.892;2022-07-23T04:12:39;7.00;;;6.40;;
66093;SDS011;52876;49.394;10.892;2022-07-23T04:15:06;7.30;;;6.77;;
66093;SDS011;52876;49.394;10.892;2022-07-23T04:17:37;7.07;;;6.47;;
66093;SDS011;52876;49.394;10.892;2022-07-23T04:20:04;7.90;;;7.30;;
66093;SDS011;52876;49.394;10.892;2022-07-23T04:22:37;7.07;;;6.37;;
66093;SDS011;52876;49.394;10.892;2022-07-23T04:25:03;7.43;;;6.83;;
66093;SDS011;52876;49.394;10.892;2022-07-23T04:27:34;6.37;;;5.87;;
66093;SDS011;52876;49.394;10.892;2022-07-23T04:30:01;7.00;;;6.30;;
66093;SDS011;52876;49.394;10.892;2022-07-23T04:32:34;7.53;;;6.93;;
66093;SDS011;52876;49.394;10.892;2022-07-23T04:35:01;7.50;;;6.90;;
66093;SDS011;52876;49.394;10.892;2022-07-23T04:37:33;6.23;;;5.83;;
66093;SDS011;52876;49.394;10.892;2022-07-23T04:40:00;6.80;;;6.30;;
66093;SDS011;52876;49.394;10.892;2022-07-23T04:42:31;7.80;;;6.70;;
66093;SDS011;52876;49.394;10.892;2022-07-23T04:44:58;5.90;;;5.50;;
66093;SDS011;52876;49.394;10.892;2022-07-23T04:47:29;7.17;;;6.50;;
66093;SDS011;52876;49.394;10.892;2022-07-23T04:49:55;7.23;;;6.73;;
66093;SDS011;52876;49.394;10.892;2022-07-23T04:52:22;6.83;;;6.23;;
66093;SDS011;52876;49.394;10.892;2022-07-23T04:54:48;7.07;;;6.53;;
66093;SDS011;52876;49.394;10.892;2022-07-23T04:57:16;6.97;;;6.37;;
66093;SDS011;52876;49.394;10.892;2022-07-23T04:59:42;9.70;;;6.67;;
66093;SDS011;52876;49.394;10.892;2022-07-23T05:02:08;7.77;;;6.53;;
66093;SDS011;52876;49.394;10.892;2022-07-23T05:04:34;6.60;;;6.10;;
66093;SDS011;52876;49.394;10.892;2022-07-23T05:07:04;7.23;;;6.63;;
66093;SDS011;52876;49.394;10.892;2022-07-23T05:09:30;7.10;;;6.50;;
66093;SDS011;52876;49.394;10.892;2022-07-23T05:12:00;8.23;;;7.37;;
66093;SDS011;52876;49.394;10.892;2022-07-23T05:14:27;7.10;;;6.60;;
66093;SDS011;52876;49.394;10.892;2022-07-23T05:16:56;7.30;;;6.80;;
66093;SDS011;52876;49.394;10.892;2022-07-23T05:19:22;7.87;;;5.93;;
66093;SDS011;52876;49.394;10.892;2022-07-23T05:21:49;7.33;;;6.77;;
66093;SDS011;52876;49.394;10.892;2022-07-23T05:24:15;6.47;;;5.93;;
66093;SDS011;52876;49.394;10.892;2022-07-23T05:26:45;6.33;;;5.83;;
66093;SDS011;52876;49.394;10.892;2022-07-23T05:29:11;6.47;;;5.93;;
66093;SDS011;52876;49.394;10.892;2022-07-23T05:31:39;6.43;;;6.00;;
66093;SDS011;52876;49.394;10.892;2022-07-23T05:34:05;6.50;;;6.00;;
66093;SDS011;52876;49.394;10.892;2022-07-23T05:36:31;6.47;;;5.97;;
66093;SDS011;52876;49.394;10.892;2022-07-23T05:38:58;7.20;;;6.20;;
66093;SDS011;52876;49.394;10.892;2022-07-23T05:41:24;7.00;;;6.40;;
66093;SDS011;52876;49.394;10.892;2022-07-23T05:43:50;6.50;;;6.00;;
66093;SDS011;52876;49.394;10.892;2022-07-23T05:46:29;6.60;;;6.00;;
66093;SDS011;52876;49.394;10.892;2022-07-23T05:48:57;6.03;;;5.63;;
66093;SDS011;52876;49.394;10.892;2022-07-23T05:51:26;6.50;;;5.90;;
66093;SDS011;52876;49.394;10.892;2022-07-23T05:53:52;8.33;;;6.50;;
66093;SDS011;52876;49.394;10.892;2022-07-23T05:56:19;7.30;;;6.80;;
66093;SDS011;52876;49.394;10.892;2022-07-23T05:58:45;8.10;;;7.43;;
66093;SDS011;52876;49.394;10.892;2022-07-23T06:01:11;7.03;;;6.40;;
66093;SDS011;52876;49.394;10.892;2022-07-23T06:03:52;7.63;;;6.83;;
66093;SDS011;52876;49.394;10.892;2022-07-23T06:06:18;8.43;;;6.17;;
66093;SDS011;52876;49.394;10.892;2022-07-23T06:08:44;6.57;;;6.07;;
66093;SDS011;52876;49.394;10.892;2022-07-23T06:11:13;7.27;;;6.57;;
66093;SDS011;52876;49.394;10.892;2022-07-23T06:13:40;7.53;;;5.80;;
66093;SDS011;52876;49.394;10.892;2022-07-23T06:16:13;7.13;;;6.53;;
66093;SDS011;52876;49.394;10.892;2022-07-23T06:18:39;6.93;;;6.33;;
66093;SDS011;52876;49.394;10.892;2022-07-23T06:21:10;6.93;;;5.60;;
66093;SDS011;52876;49.394;10.892;2022-07-23T06:23:36;6.27;;;5.87;;
66093;SDS011;52876;49.394;10.892;2022-07-23T06:26:06;7.13;;;6.63;;
66093;SDS011;52876;49.394;10.892;2022-07-23T06:28:32;6.93;;;6.43;;
66093;SDS011;52876;49.394;10.892;2022-07-23T06:31:13;6.20;;;5.80;;
66093;SDS011;52876;49.394;10.892;2022-07-23T06:33:39;7.27;;;6.70;;
66093;SDS011;52876;49.394;10.892;2022-07-23T06:36:06;6.63;;;6.13;;
66093;SDS011;52876;49.394;10.892;2022-07-23T06:38:33;6.57;;;6.10;;
66093;SDS011;52876;49.394;10.892;2022-07-23T06:41:03;7.30;;;6.70;;
66093;SDS011;52876;49.394;10.892;2022-07-23T06:43:30;7.50;;;6.90;;
66093;SDS011;52876;49.394;10.892;2022-07-23T06:45:56;7.53;;;6.90;;
66093;SDS011;52876;49.394;10.892;2022-07-23T06:48:24;7.03;;;6.60;;
66093;SDS011;52876;49.394;10.892;2022-07-23T06:50:54;7.77;;;6.93;;
66093;SDS011;52876;49.394;10.892;2022-07-23T06:53:20;7.93;;;7.23;;
66093;SDS011;52876;49.394;10.892;2022-07-23T06:55:47;8.03;;;7.43;;
66093;SDS011;52876;49.394;10.892;2022-07-23T06:58:13;7.97;;;7.27;;
66093;SDS011;52876;49.394;10.892;2022-07-23T07:00:42;8.20;;;7.53;;
66093;SDS011;52876;49.394;10.892;2022-07-23T07:03:08;7.80;;;7.00;;
66093;SDS011;52876;49.394;10.892;2022-07-23T07:05:38;8.50;;;7.80;;
66093;SDS011;52876;49.394;10.892;2022-07-23T07:08:04;8.60;;;7.90;;
66093;SDS011;52876;49.394;10.892;2022-07-23T07:10:30;9.47;;;8.57;;
66093;SDS011;52876;49.394;10.892;2022-07-23T07:12:58;9.37;;;8.57;;
66093;SDS011;52876;49.394;10.892;2022-07-23T07:15:29;8.77;;;8.07;;
66093;SDS011;52876;49.394;10.892;2022-07-23T07:17:55;9.00;;;8.20;;
66093;SDS011;52876;49.394;10.892;2022-07-23T07:20:21;10.47;;;8.83;;
66093;SDS011;52876;49.394;10.892;2022-07-23T07:22:51;9.37;;;8.47;;
66093;SDS011;52876;49.394;10.892;2022-07-23T07:25:17;9.67;;;8.67;;
66093;SDS011;52876;49.394;10.892;2022-07-23T07:27:47;9.63;;;8.83;;
66093;SDS011;52876;49.394;10.892;2022-07-23T07:30:15;8.70;;;7.90;;
66093;SDS011;52876;49.394;10.892;2022-07-23T07:32:46;9.10;;;8.20;;
66093;SDS011;52876;49.394;10.892;2022-07-23T07:35:12;9.27;;;8.50;;
66093;SDS011;52876;49.394;10.892;2022-07-23T07:37:57;9.70;;;8.70;;
66093;SDS011;52876;49.394;10.892;2022-07-23T07:40:23;10.87;;;8.80;;
66093;SDS011;52876;49.394;10.892;2022-07-23T07:42:51;9.30;;;8.60;;
66093;SDS011;52876;49.394;10.892;2022-07-23T07:45:24;9.20;;;7.57;;
66093;SDS011;52876;49.394;10.892;2022-07-23T07:47:50;9.20;;;8.40;;
66093;SDS011;52876;49.394;10.892;2022-07-23T07:50:31;9.40;;;8.50;;
66093;SDS011;52876;49.394;10.892;2022-07-23T07:53:00;9.90;;;9.00;;
66093;SDS011;52876;49.394;10.892;2022-07-23T07:55:26;9.10;;;8.30;;
66093;SDS011;52876;49.394;10.892;2022-07-23T07:57:52;8.60;;;7.90;;
66093;SDS011;52876;49.394;10.892;2022-07-23T08:00:23;9.13;;;8.43;;
66093;SDS011;52876;49.394;10.892;2022-07-23T08:02:50;11.50;;;7.90;;
66093;SDS011;52876;49.394;10.892;2022-07-23T08:05:21;9.93;;;8.93;;
66093;SDS011;52876;49.394;10.892;2022-07-23T08:07:57;9.90;;;8.90;;
66093;SDS011;52876;49.394;10.892;2022-07-23T08:10:24;9.80;;;8.80;;
66093;SDS011;52876;49.394;10.892;2022-07-23T08:12:51;10.43;;;8.00;;
66093;SDS011;52876;49.394;10.892;2022-07-23T08:15:18;9.70;;;8.70;;
66093;SDS011;52876;49.394;10.892;2022-07-23T08:17:50;9.13;;;8.30;;
66093;SDS011;52876;49.394;10.892;2022-07-23T08:20:17;8.63;;;7.80;;
66093;SDS011;52876;49.394;10.892;2022-07-23T08:22:49;9.03;;;8.23;;
66093;SDS011;52876;49.394;10.892;2022-07-23T08:25:20;10.27;;;9.47;;
66093;SDS011;52876;49.394;10.892;2022-07-23T08:27:56;8.33;;;7.53;;
66093;SDS011;52876;49.394;10.892;2022-07-23T08:30:23;8.17;;;7.57;;
66093;SDS011;52876;49.394;10.892;2022-07-23T08:32:55;9.47;;;8.50;;
66093;SDS011;52876;49.394;10.892;2022-07-23T08:35:22;8.60;;;8.00;;
66093;SDS011;52876;49.394;10.892;2022-07-23T08:37:57;8.47;;;7.77;;
66093;SDS011;52876;49.394;10.892;2022-07-23T08:40:29;7.87;;;7.00;;
66093;SDS011;52876;49.394;10.892;2022-07-23T08:42:57;13.17;;;9.00;;
66093;SDS011;52876;49.394;10.892;2022-07-23T08:45:25;8.07;;;7.33;;
66093;SDS011;52876;49.394;10.892;2022-07-23T08:47:52;8.80;;;8.00;;
66093;SDS011;52876;49.394;10.892;2022-07-23T08:50:20;8.60;;;6.97;;
66093;SDS011;52876;49.394;10.892;2022-07-23T08:52:52;8.63;;;7.60;;
66093;SDS011;52876;49.394;10.892;2022-07-23T08:55:20;8.43;;;7.63;;
66093;SDS011;52876;49.394;10.892;2022-07-23T08:57:52;8.63;;;7.83;;
66093;SDS011;52876;49.394;10.892;2022-07-23T09:00:19;10.50;;;9.27;;
66093;SDS011;52876;49.394;10.892;2022-07-23T09:02:51;11.83;;;10.10;;
66093;SDS011;52876;49.394;10.892;2022-07-23T09:05:19;10.17;;;9.17;;
66093;SDS011;52876;49.394;10.892;2022-07-23T09:08:03;10.10;;;9.17;;
66093;SDS011;52876;49.394;10.892;2022-07-23T09:10:53;9.60;;;8.60;;
66093;SDS011;52876;49.394;10.892;2022-07-23T09:13:27;10.73;;;9.73;;
66093;SDS011;52876;49.394;10.892;2022-07-23T09:15:55;10.37;;;9.47;;
66093;SDS011;52876;49.394;10.892;2022-07-23T09:18:30;10.73;;;9.63;;
66093;SDS011;52876;49.394;10.892;2022-07-23T09:21:09;10.63;;;9.63;;
66093;SDS011;52876;49.394;10.892;2022-07-23T09:23:37;10.47;;;9.30;;
66093;SDS011;52876;49.394;10.892;2022-07-23T09:26:19;9.53;;;8.63;;
66093;SDS011;52876;49.394;10.892;2022-07-23T09:28:51;11.20;;;10.10;;
66093;SDS011;52876;49.394;10.892;2022-07-23T09:31:22;10.80;;;9.90;;
66093;SDS011;52876;49.394;10.892;2022-07-23T09:33:49;11.17;;;9.93;;
66093;SDS011;52876;49.394;10.892;2022-07-23T09:36:16;12.73;;;11.67;;
66093;SDS011;52876;49.394;10.892;2022-07-23T09:38:52;10.10;;;9.13;;
66093;SDS011;52876;49.394;10.892;2022-07-23T09:41:21;8.73;;;7.83;;
66093;SDS011;52876;49.394;10.892;2022-07-23T09:43:48;9.70;;;8.90;;
66093;SDS011;52876;49.394;10.892;2022-07-23T09:46:21;8.30;;;7.70;;
66093;SDS011;52876;49.394;10.892;2022-07-23T09:48:48;9.00;;;8.20;;
66093;SDS011;52876;49.394;10.892;2022-07-23T09:51:16;9.10;;;8.40;;
66093;SDS011;52876;49.394;10.892;2022-07-23T09:53:42;9.27;;;8.50;;
66093;SDS011;52876;49.394;10.892;2022-07-23T09:56:08;9.27;;;8.47;;
66093;SDS011;52876;49.394;10.892;2022-07-23T09:58:39;8.30;;;7.60;;
66093;SDS011;52876;49.394;10.892;2022-07-23T10:01:08;7.40;;;6.80;;
66093;SDS011;52876;49.394;10.892;2022-07-23T10:03:36;7.53;;;7.03;;
66093;SDS011;52876;49.394;10.892;2022-07-23T10:06:10;8.37;;;7.70;;
66093;SDS011;52876;49.394;10.892;2022-07-23T10:08:40;9.03;;;8.30;;
66093;SDS011;52876;49.394;10.892;2022-07-23T10:11:07;9.63;;;8.83;;
66093;SDS011;52876;49.394;10.892;2022-07-23T10:13:34;9.00;;;8.30;;
66093;SDS011;52876;49.394;10.892;2022-07-23T10:16:14;9.63;;;8.73;;
66093;SDS011;52876;49.394;10.892;2022-07-23T10:18:41;9.17;;;8.47;;
66093;SDS011;52876;49.394;10.892;2022-07-23T10:21:10;9.60;;;8.67;;
66093;SDS011;52876;49.394;10.892;2022-07-23T10:23:37;9.70;;;8.60;;
66093;SDS011;52876;49.394;10.892;2022-07-23T10:26:10;9.60;;;8.80;;
66093;SDS011;52876;49.394;10.892;2022-07-23T10:28:46;10.07;;;8.50;;
66093;SDS011;52876;49.394;10.892;2022-07-23T10:31:26;10.20;;;9.30;;
66093;SDS011;52876;49.394;10.892;2022-07-23T10:34:02;10.77;;;9.87;;
66093;SDS011;52876;49.394;10.892;2022-07-23T10:36:38;9.93;;;9.13;;
66093;SDS011;52876;49.394;10.892;2022-07-23T10:39:15;10.03;;;9.23;;
66093;SDS011;52876;49.394;10.892;2022-07-23T10:41:45;10.50;;;9.50;;
66093;SDS011;52876;49.394;10.892;2022-07-23T10:44:13;10.93;;;10.03;;
66093;SDS011;52876;49.394;10.892;2022-07-23T10:46:53;10.77;;;9.87;;
66093;SDS011;52876;49.394;10.892;2022-07-23T10:49:21;10.73;;;9.87;;
66093;SDS011;52876;49.394;10.892;2022-07-23T10:54:45;9.30;;;8.50;;
66093;SDS011;52876;49.394;10.892;2022-07-23T10:57:15;9.90;;;8.90;;
66093;SDS011;52876;49.394;10.892;2022-07-23T11:00:08;9.50;;;8.70;;
66093;SDS011;52876;49.394;10.892;2022-07-23T11:02:45;9.80;;;9.10;;
66093;SDS011;52876;49.394;10.892;2022-07-23T11:05:13;11.57;;;10.57;;
66093;SDS011;52876;49.394;10.892;2022-07-23T11:10:40;9.50;;;8.70;;
66093;SDS011;52876;49.394;10.892;2022-07-23T11:13:26;8.70;;;8.00;;
66093;SDS011;52876;49.394;10.892;2022-07-23T11:16:06;10.43;;;9.60;;
66093;SDS011;52876;49.394;10.892;2022-07-23T11:18:56;10.20;;;9.30;;
66093;SDS011;52876;49.394;10.892;2022-07-23T11:21:41;9.57;;;8.70;;
66093;SDS011;52876;49.394;10.892;2022-07-23T11:24:15;8.93;;;8.20;;
66093;SDS011;52876;49.394;10.892;2022-07-23T11:26:48;9.60;;;8.73;;
66093;SDS011;52876;49.394;10.892;2022-07-23T11:29:43;9.53;;;8.70;;
66093;SDS011;52876;49.394;10.892;2022-07-23T11:32:20;13.83;;;12.53;;
66093;SDS011;52876;49.394;10.892;2022-07-23T11:34:54;8.60;;;7.90;;
66093;SDS011;52876;49.394;10.892;2022-07-23T11:37:28;9.77;;;8.80;;
66093;SDS011;52876;49.394;10.892;2022-07-23T11:40:01;8.70;;;7.90;;
66093;SDS011;52876;49.394;10.892;2022-07-23T11:42:34;9.07;;;7.83;;
66093;SDS011;52876;49.394;10.892;2022-07-23T11:45:01;10.20;;;9.30;;
66093;SDS011;52876;49.394;10.892;2022-07-23T11:47:30;8.23;;;7.63;;
66093;SDS011;52876;49.394;10.892;2022-07-23T11:49:56;8.27;;;7.57;;
66093;SDS011;52876;49.394;10.892;2022-07-23T11:52:24;8.67;;;8.00;;
66093;SDS011;52876;49.394;10.892;2022-07-23T11:54:51;8.37;;;7.70;;
66093;SDS011;52876;49.394;10.892;2022-07-23T11:57:21;7.67;;;7.07;;
66093;SDS011;52876;49.394;10.892;2022-07-23T11:59:53;8.63;;;8.03;;
66093;SDS011;52876;49.394;10.892;2022-07-23T12:02:21;9.20;;;7.63;;
66093;SDS011;52876;49.394;10.892;2022-07-23T12:04:48;9.10;;;8.20;;
66093;SDS011;52876;49.394;10.892;2022-07-23T12:07:24;7.57;;;6.97;;
66093;SDS011;52876;49.394;10.892;2022-07-23T12:09:51;8.43;;;7.83;;
66093;SDS011;52876;49.394;10.892;2022-07-23T12:12:18;8.33;;;7.73;;
66093;SDS011;52876;49.394;10.892;2022-07-23T12:14:48;7.17;;;6.63;;
66093;SDS011;52876;49.394;10.892;2022-07-23T12:17:18;7.23;;;6.60;;
66093;SDS011;52876;49.394;10.892;2022-07-23T12:19:45;8.40;;;7.80;;
66093;SDS011;52876;49.394;10.892;2022-07-23T12:22:18;8.03;;;7.43;;
66093;SDS011;52876;49.394;10.892;2022-07-23T12:24:57;8.00;;;7.50;;
66093;SDS011;52876;49.394;10.892;2022-07-23T12:27:27;8.77;;;8.07;;
66093;SDS011;52876;49.394;10.892;2022-07-23T12:29:54;8.73;;;7.87;;
66093;SDS011;52876;49.394;10.892;2022-07-23T12:32:25;7.47;;;6.93;;
66093;SDS011;52876;49.394;10.892;2022-07-23T12:35:02;8.37;;;7.63;;
66093;SDS011;52876;49.394;10.892;2022-07-23T12:37:35;7.07;;;6.57;;
66093;SDS011;52876;49.394;10.892;2022-07-23T12:42:55;8.00;;;7.40;;
66093;SDS011;52876;49.394;10.892;2022-07-23T12:45:22;7.50;;;7.00;;
66093;SDS011;52876;49.394;10.892;2022-07-23T12:47:55;8.10;;;7.60;;
66093;SDS011;52876;49.394;10.892;2022-07-23T12:53:16;8.03;;;7.53;;
66093;SDS011;52876;49.394;10.892;2022-07-23T12:55:44;8.73;;;8.13;;
66093;SDS011;52876;49.394;10.892;2022-07-23T12:58:12;8.13;;;7.53;;
66093;SDS011;52876;49.394;10.892;2022-07-23T13:00:50;9.10;;;8.30;;
66093;SDS011;52876;49.394;10.892;2022-07-23T13:03:28;8.70;;;8.10;;
66093;SDS011;52876;49.394;10.892;2022-07-23T13:05:59;8.73;;;8.03;;
66093;SDS011;52876;49.394;10.892;2022-07-23T13:08:27;7.77;;;7.27;;
66093;SDS011;52876;49.394;10.892;2022-07-23T13:10:57;9.63;;;8.93;;
66093;SDS011;52876;49.394;10.892;2022-07-23T13:13:25;8.27;;;7.63;;
66093;SDS011;52876;49.394;10.892;2022-07-23T13:15:57;7.83;;;7.33;;
66093;SDS011;52876;49.394;10.892;2022-07-23T13:18:39;8.30;;;7.60;;
66093;SDS011;52876;49.394;10.892;2022-07-23T13:21:05;8.60;;;7.90;;
66093;SDS011;52876;49.394;10.892;2022-07-23T13:23:32;8.67;;;7.97;;
66093;SDS011;52876;49.394;10.892;2022-07-23T13:25:58;8.50;;;7.90;;
66093;SDS011;52876;49.394;10.892;2022-07-23T13:28:24;9.23;;;8.37;;
66093;SDS011;52876;49.394;10.892;2022-07-23T13:30:51;7.80;;;7.13;;
66093;SDS011;52876;49.394;10.892;2022-07-23T13:33:17;8.63;;;8.03;;
66093;SDS011;52876;49.394;10.892;2022-07-23T13:35:46;7.57;;;6.97;;
66093;SDS011;52876;49.394;10.892;2022-07-23T13:38:12;7.57;;;7.07;;
66093;SDS011;52876;49.394;10.892;2022-07-23T13:40:42;7.73;;;7.17;;
66093;SDS011;52876;49.394;10.892;2022-07-23T13:43:10;8.00;;;7.43;;
66093;SDS011;52876;49.394;10.892;2022-07-23T13:45:37;7.87;;;7.37;;
66093;SDS011;52876;49.394;10.892;2022-07-23T13:48:04;7.63;;;7.13;;
66093;SDS011;52876;49.394;10.892;2022-07-23T13:50:34;8.97;;;8.23;;
66093;SDS011;52876;49.394;10.892;2022-07-23T13:53:03;7.77;;;7.27;;
66093;SDS011;52876;49.394;10.892;2022-07-23T13:55:33;8.03;;;7.47;;
66093;SDS011;52876;49.394;10.892;2022-07-23T13:57:59;8.63;;;7.93;;
66093;SDS011;52876;49.394;10.892;2022-07-23T14:00:26;7.93;;;7.43;;
66093;SDS011;52876;49.394;10.892;2022-07-23T14:02:52;8.10;;;7.40;;
66093;SDS011;52876;49.394;10.892;2022-07-23T14:05:19;10.80;;;9.50;;
66093;SDS011;52876;49.394;10.892;2022-07-23T14:07:56;8.10;;;7.50;;
66093;SDS011;52876;49.394;10.892;2022-07-23T14:10:24;8.57;;;7.87;;
66093;SDS011;52876;49.394;10.892;2022-07-23T14:12:50;8.60;;;7.80;;
66093;SDS011;52876;49.394;10.892;2022-07-23T14:15:17;8.23;;;7.70;;
66093;SDS011;52876;49.394;10.892;2022-07-23T14:17:46;9.23;;;8.57;;
66093;SDS011;52876;49.394;10.892;2022-07-23T14:20:13;8.50;;;7.90;;
66093;SDS011;52876;49.394;10.892;2022-07-23T14:22:42;7.93;;;7.33;;
66093;SDS011;52876;49.394;10.892;2022-07-23T14:25:09;8.37;;;7.80;;
66093;SDS011;52876;49.394;10.892;2022-07-23T14:27:41;8.20;;;7.60;;
66093;SDS011;52876;49.394;10.892;2022-07-23T14:30:08;9.43;;;8.63;;
66093;SDS011;52876;49.394;10.892;2022-07-23T14:32:38;7.83;;;7.23;;
66093;SDS011;52876;49.394;10.892;2022-07-23T14:35:05;8.20;;;7.60;;
66093;SDS011;52876;49.394;10.892;2022-07-23T14:37:34;9.00;;;8.30;;
66093;SDS011;52876;49.394;10.892;2022-07-23T14:40:01;9.90;;;8.90;;
66093;SDS011;52876;49.394;10.892;2022-07-23T14:42:31;8.93;;;8.13;;
66093;SDS011;52876;49.394;10.892;2022-07-23T14:44:59;8.70;;;7.90;;
66093;SDS011;52876;49.394;10.892;2022-07-23T14:47:29;8.07;;;7.40;;
66093;SDS011;52876;49.394;10.892;2022-07-23T14:49:55;8.73;;;7.97;;
66093;SDS011;52876;49.394;10.892;2022-07-23T14:52:21;7.90;;;7.30;;
66093;SDS011;52876;49.394;10.892;2022-07-23T14:54:47;8.27;;;7.67;;
66093;SDS011;52876;49.394;10.892;2022-07-23T14:57:14;9.07;;;8.30;;